sensor_id;sensor_type;location;lat;lon;timestamp;pressure;altitude;pressure_sealevel;temperature;humidity
30708;BME280;17458;48.958;8.284;2023-04-29T00:00:30;100039.47;;;17.20;80.86
30708;BME280;17458;48.958;8.284;2023-04-29T00:03:15;100040.59;;;17.32;80.43
30708;BME280;17458;48.958;8.284;2023-04-29T00:05:59;100042.41;;;17.33;80.13
30708;BME280;17458;48.958;8.284;2023-04-29T00:08:43;100044.00;;;17.22;79.79
30708;BME280;17458;48.958;8.284;2023-04-29T00:11:27;100047.66;;;17.27;80.30
30708;BME280;17458;48.958;8.284;2023-04-29T00:14:11;100043.13;;;17.23;79.91
30708;BME280;17458;48.958;8.284;2023-04-29T00:16:55;100044.06;;;17.25;80.05
30708;BME280;17458;48.958;8.284;2023-04-29T00:19:40;100043.03;;;17.19;80.25
30708;BME280;17458;48.958;8.284;2023-04-29T00:22:23;100046.63;;;17.19;80.67
30708;BME280;17458;48.958;8.284;2023-04-29T00:25:08;100051.09;;;17.19;80.67
30708;BME280;17458;48.958;8.284;2023-04-29T00:27:52;100056.19;;;17.05;81.27
30708;BME280;17458;48.958;8.284;2023-04-29T00:30:36;100049.31;;;17.19;80.88
30708;BME280;17458;48.958;8.284;2023-04-29T00:33:20;100052.63;;;17.05;81.37
30708;BME280;17458;48.958;8.284;2023-04-29T00:36:04;100043.53;;;16.96;81.97
30708;BME280;17458;48.958;8.284;2023-04-29T00:38:48;100048.22;;;17.08;81.50
30708;BME280;17458;48.958;8.284;2023-04-29T00:41:33;100051.59;;;16.99;81.34
30708;BME280;17458;48.958;8.284;2023-04-29T00:44:17;100049.06;;;17.06;81.05
30708;BME280;17458;48.958;8.284;2023-04-29T00:47:02;100061.38;;;16.94;81.37
30708;BME280;17458;48.958;8.284;2023-04-29T00:49:46;100057.97;;;17.05;81.15
30708;BME280;17458;48.958;8.284;2023-04-29T00:52:31;100050.75;;;17.02;81.40
30708;BME280;17458;48.958;8.284;2023-04-29T00:55:15;100058.81;;;17.02;80.93
30708;BME280;17458;48.958;8.284;2023-04-29T00:58:01;100060.69;;;17.06;80.82
30708;BME280;17458;48.958;8.284;2023-04-29T01:00:47;100064.16;;;17.00;80.88
30708;BME280;17458;48.958;8.284;2023-04-29T01:03:32;100060.63;;;17.03;81.14
30708;BME280;17458;48.958;8.284;2023-04-29T01:15:20;100063.13;;;16.94;81.61
30708;BME280;17458;48.958;8.284;2023-04-29T01:18:11;100061.22;;;16.88;81.29
30708;BME280;17458;48.958;8.284;2023-04-29T01:20:57;100063.78;;;16.81;81.73
30708;BME280;17458;48.958;8.284;2023-04-29T01:23:42;100064.47;;;16.72;82.70
30708;BME280;17458;48.958;8.284;2023-04-29T01:26:31;100061.22;;;16.88;82.33
30708;BME280;17458;48.958;8.284;2023-04-29T01:29:37;100068.25;;;16.82;81.89
30708;BME280;17458;48.958;8.284;2023-04-29T01:32:32;100073.97;;;16.58;83.74
30708;BME280;17458;48.958;8.284;2023-04-29T01:38:33;100059.00;;;16.66;83.36
30708;BME280;17458;48.958;8.284;2023-04-29T01:41:30;100054.72;;;16.76;82.14
30708;BME280;17458;48.958;8.284;2023-04-29T01:44:28;100051.00;;;16.68;82.22
30708;BME280;17458;48.958;8.284;2023-04-29T01:47:15;100055.41;;;16.65;82.56
30708;BME280;17458;48.958;8.284;2023-04-29T01:50:05;100058.09;;;16.65;82.13
30708;BME280;17458;48.958;8.284;2023-04-29T01:52:50;100059.09;;;16.72;81.75
30708;BME280;17458;48.958;8.284;2023-04-29T01:55:34;100067.16;;;16.72;81.43
30708;BME280;17458;48.958;8.284;2023-04-29T01:58:29;100070.59;;;16.65;81.54
30708;BME280;17458;48.958;8.284;2023-04-29T02:01:24;100071.09;;;16.49;82.39
30708;BME280;17458;48.958;8.284;2023-04-29T02:04:09;100066.81;;;16.58;81.86
30708;BME280;17458;48.958;8.284;2023-04-29T02:06:54;100068.56;;;16.56;81.97
30708;BME280;17458;48.958;8.284;2023-04-29T02:09:38;100075.44;;;16.42;83.01
30708;BME280;17458;48.958;8.284;2023-04-29T02:12:27;100074.72;;;16.51;82.17
30708;BME280;17458;48.958;8.284;2023-04-29T02:15:12;100075.44;;;16.42;82.39
30708;BME280;17458;48.958;8.284;2023-04-29T02:17:55;100075.31;;;16.38;82.85
30708;BME280;17458;48.958;8.284;2023-04-29T02:20:40;100082.69;;;16.48;81.77
30708;BME280;17458;48.958;8.284;2023-04-29T02:23:24;100081.03;;;16.53;81.42
30708;BME280;17458;48.958;8.284;2023-04-29T02:26:08;100084.84;;;16.23;81.89
30708;BME280;17458;48.958;8.284;2023-04-29T02:28:53;100081.47;;;16.34;81.45
30708;BME280;17458;48.958;8.284;2023-04-29T02:31:39;100086.72;;;16.27;81.58
30708;BME280;17458;48.958;8.284;2023-04-29T02:34:23;100091.09;;;16.24;81.80
30708;BME280;17458;48.958;8.284;2023-04-29T02:37:07;100089.94;;;16.13;82.26
30708;BME280;17458;48.958;8.284;2023-04-29T02:39:51;100098.81;;;16.10;82.76
30708;BME280;17458;48.958;8.284;2023-04-29T02:42:36;100093.41;;;16.09;82.57
30708;BME280;17458;48.958;8.284;2023-04-29T02:45:20;100097.03;;;16.11;82.43
30708;BME280;17458;48.958;8.284;2023-04-29T02:48:05;100095.00;;;16.01;82.31
30708;BME280;17458;48.958;8.284;2023-04-29T02:50:50;100092.31;;;15.99;82.24
30708;BME280;17458;48.958;8.284;2023-04-29T02:53:34;100099.69;;;16.09;81.80
30708;BME280;17458;48.958;8.284;2023-04-29T02:56:18;100104.59;;;15.91;81.89
30708;BME280;17458;48.958;8.284;2023-04-29T02:59:03;100107.22;;;15.89;82.44
30708;BME280;17458;48.958;8.284;2023-04-29T03:01:46;100107.69;;;15.73;82.75
30708;BME280;17458;48.958;8.284;2023-04-29T03:04:31;100107.09;;;15.83;82.53
30708;BME280;17458;48.958;8.284;2023-04-29T03:07:15;100106.25;;;15.86;81.45
30708;BME280;17458;48.958;8.284;2023-04-29T03:10:00;100113.44;;;15.88;80.97
30708;BME280;17458;48.958;8.284;2023-04-29T03:12:44;100117.53;;;15.74;81.38
30708;BME280;17458;48.958;8.284;2023-04-29T03:15:28;100104.09;;;15.71;81.54
30708;BME280;17458;48.958;8.284;2023-04-29T03:18:14;100114.34;;;15.89;81.00
30708;BME280;17458;48.958;8.284;2023-04-29T03:20:58;100103.47;;;15.81;80.54
30708;BME280;17458;48.958;8.284;2023-04-29T03:23:42;100095.47;;;15.83;80.42
30708;BME280;17458;48.958;8.284;2023-04-29T03:26:30;100108.78;;;15.80;80.12
30708;BME280;17458;48.958;8.284;2023-04-29T03:29:14;100109.63;;;15.79;80.02
30708;BME280;17458;48.958;8.284;2023-04-29T03:31:58;100107.59;;;15.69;79.85
30708;BME280;17458;48.958;8.284;2023-04-29T03:34:42;100108.44;;;15.66;80.06
30708;BME280;17458;48.958;8.284;2023-04-29T03:37:40;100109.25;;;15.64;79.86
30708;BME280;17458;48.958;8.284;2023-04-29T03:40:46;100112.69;;;15.59;79.27
30708;BME280;17458;48.958;8.284;2023-04-29T03:43:32;100120.34;;;15.46;79.44
30708;BME280;17458;48.958;8.284;2023-04-29T03:46:17;100119.06;;;15.32;79.37
30708;BME280;17458;48.958;8.284;2023-04-29T03:49:02;100122.59;;;15.29;79.61
30708;BME280;17458;48.958;8.284;2023-04-29T03:51:46;100124.31;;;15.27;79.44
30708;BME280;17458;48.958;8.284;2023-04-29T03:54:32;100130.56;;;15.28;79.45
30708;BME280;17458;48.958;8.284;2023-04-29T03:57:17;100133.88;;;15.19;79.43
30708;BME280;17458;48.958;8.284;2023-04-29T04:00:01;100134.53;;;15.10;79.73
30708;BME280;17458;48.958;8.284;2023-04-29T04:02:46;100138.25;;;15.15;79.47
30708;BME280;17458;48.958;8.284;2023-04-29T04:05:30;100146.97;;;15.08;78.92
30708;BME280;17458;48.958;8.284;2023-04-29T04:08:21;100139.84;;;15.09;79.05
30708;BME280;17458;48.958;8.284;2023-04-29T04:11:12;100145.03;;;15.04;78.91
30708;BME280;17458;48.958;8.284;2023-04-29T04:14:01;100150.41;;;15.04;78.79
30708;BME280;17458;48.958;8.284;2023-04-29T04:16:47;100156.59;;;15.03;78.34
30708;BME280;17458;48.958;8.284;2023-04-29T04:19:33;100151.00;;;14.94;78.42
30708;BME280;17458;48.958;8.284;2023-04-29T04:22:17;100159.78;;;14.90;78.46
30708;BME280;17458;48.958;8.284;2023-04-29T04:25:16;100164.72;;;14.76;79.52
30708;BME280;17458;48.958;8.284;2023-04-29T04:28:01;100166.72;;;14.83;79.20
30708;BME280;17458;48.958;8.284;2023-04-29T04:31:07;100165.22;;;14.93;78.85
30708;BME280;17458;48.958;8.284;2023-04-29T04:33:52;100171.03;;;14.78;79.79
30708;BME280;17458;48.958;8.284;2023-04-29T04:36:36;100172.09;;;14.83;79.70
30708;BME280;17458;48.958;8.284;2023-04-29T04:39:20;100174.31;;;14.98;79.62
30708;BME280;17458;48.958;8.284;2023-04-29T04:42:05;100177.22;;;15.07;79.26
30708;BME280;17458;48.958;8.284;2023-04-29T04:44:52;100194.59;;;14.92;79.44
30708;BME280;17458;48.958;8.284;2023-04-29T04:47:46;100198.25;;;15.55;78.49
30708;BME280;17458;48.958;8.284;2023-04-29T04:50:38;100205.63;;;15.64;77.07
30708;BME280;17458;48.958;8.284;2023-04-29T04:53:23;100204.97;;;16.07;76.09
30708;BME280;17458;48.958;8.284;2023-04-29T04:56:11;100216.31;;;16.67;72.81
30708;BME280;17458;48.958;8.284;2023-04-29T04:58:55;100213.53;;;16.62;72.65
30708;BME280;17458;48.958;8.284;2023-04-29T05:01:39;100231.66;;;17.13;70.58
30708;BME280;17458;48.958;8.284;2023-04-29T05:04:23;100227.41;;;17.23;70.16
30708;BME280;17458;48.958;8.284;2023-04-29T05:07:08;100228.53;;;17.34;69.39
30708;BME280;17458;48.958;8.284;2023-04-29T05:10:12;100229.91;;;18.04;66.37
30708;BME280;17458;48.958;8.284;2023-04-29T05:13:05;100234.75;;;18.23;66.42
30708;BME280;17458;48.958;8.284;2023-04-29T05:15:50;100233.75;;;18.18;65.79
30708;BME280;17458;48.958;8.284;2023-04-29T05:18:39;100240.53;;;18.48;65.25
30708;BME280;17458;48.958;8.284;2023-04-29T05:21:23;100236.78;;;18.94;62.73
30708;BME280;17458;48.958;8.284;2023-04-29T05:24:08;100242.75;;;19.36;61.28
30708;BME280;17458;48.958;8.284;2023-04-29T05:26:52;100245.28;;;19.26;61.04
30708;BME280;17458;48.958;8.284;2023-04-29T05:29:37;100247.84;;;19.86;60.03
30708;BME280;17458;48.958;8.284;2023-04-29T05:32:21;100257.13;;;20.14;58.86
30708;BME280;17458;48.958;8.284;2023-04-29T05:35:06;100259.59;;;19.90;59.66
30708;BME280;17458;48.958;8.284;2023-04-29T05:37:50;100260.06;;;18.90;62.56
30708;BME280;17458;48.958;8.284;2023-04-29T05:40:44;100256.97;;;19.26;61.21
30708;BME280;17458;48.958;8.284;2023-04-29T05:43:57;100256.81;;;19.16;62.80
30708;BME280;17458;48.958;8.284;2023-04-29T05:46:41;100263.06;;;19.13;62.85
30708;BME280;17458;48.958;8.284;2023-04-29T05:49:25;100269.09;;;18.41;64.31
30708;BME280;17458;48.958;8.284;2023-04-29T05:52:10;100272.25;;;18.17;67.16
30708;BME280;17458;48.958;8.284;2023-04-29T05:55:00;100277.19;;;18.42;66.38
30708;BME280;17458;48.958;8.284;2023-04-29T05:57:44;100279.19;;;18.04;67.04
30708;BME280;17458;48.958;8.284;2023-04-29T06:00:28;100286.00;;;17.86;68.01
30708;BME280;17458;48.958;8.284;2023-04-29T06:03:21;100289.44;;;17.79;68.22
30708;BME280;17458;48.958;8.284;2023-04-29T06:06:11;100276.47;;;17.59;69.30
30708;BME280;17458;48.958;8.284;2023-04-29T06:09:19;100284.75;;;17.26;69.50
30708;BME280;17458;48.958;8.284;2023-04-29T06:12:04;100282.00;;;16.84;70.09
30708;BME280;17458;48.958;8.284;2023-04-29T06:14:48;100286.59;;;16.21;72.72
30708;BME280;17458;48.958;8.284;2023-04-29T06:17:31;100300.13;;;16.25;73.02
30708;BME280;17458;48.958;8.284;2023-04-29T06:20:15;100302.19;;;16.03;74.17
30708;BME280;17458;48.958;8.284;2023-04-29T06:22:59;100296.19;;;16.46;73.69
30708;BME280;17458;48.958;8.284;2023-04-29T06:25:43;100293.19;;;16.67;73.12
30708;BME280;17458;48.958;8.284;2023-04-29T06:28:27;100299.13;;;16.91;72.21
30708;BME280;17458;48.958;8.284;2023-04-29T06:31:13;100297.94;;;17.17;71.80
30708;BME280;17458;48.958;8.284;2023-04-29T06:33:58;100306.84;;;17.57;71.06
30708;BME280;17458;48.958;8.284;2023-04-29T06:36:42;100318.91;;;17.76;69.86
30708;BME280;17458;48.958;8.284;2023-04-29T06:39:46;100310.50;;;16.81;70.31
30708;BME280;17458;48.958;8.284;2023-04-29T06:42:49;100315.56;;;17.06;69.81
30708;BME280;17458;48.958;8.284;2023-04-29T06:45:54;100316.63;;;16.75;70.28
30708;BME280;17458;48.958;8.284;2023-04-29T06:48:56;100321.03;;;16.73;70.49
30708;BME280;17458;48.958;8.284;2023-04-29T06:51:41;100327.69;;;17.28;69.30
30708;BME280;17458;48.958;8.284;2023-04-29T06:54:25;100334.59;;;17.57;69.17
30708;BME280;17458;48.958;8.284;2023-04-29T06:57:11;100335.88;;;17.73;68.53
30708;BME280;17458;48.958;8.284;2023-04-29T06:59:55;100333.13;;;17.70;68.28
30708;BME280;17458;48.958;8.284;2023-04-29T07:02:39;100341.91;;;17.63;66.75
30708;BME280;17458;48.958;8.284;2023-04-29T07:05:23;100339.06;;;17.57;67.20
30708;BME280;17458;48.958;8.284;2023-04-29T07:08:08;100349.22;;;17.68;66.61
30708;BME280;17458;48.958;8.284;2023-04-29T07:10:54;100347.84;;;17.89;66.36
30708;BME280;17458;48.958;8.284;2023-04-29T07:13:40;100343.38;;;17.49;67.37
30708;BME280;17458;48.958;8.284;2023-04-29T07:16:24;100348.72;;;17.88;65.58
30708;BME280;17458;48.958;8.284;2023-04-29T07:19:11;100353.38;;;17.56;64.40
30708;BME280;17458;48.958;8.284;2023-04-29T07:21:55;100355.97;;;17.51;65.55
30708;BME280;17458;48.958;8.284;2023-04-29T07:24:39;100360.88;;;17.31;63.50
30708;BME280;17458;48.958;8.284;2023-04-29T07:27:23;100375.63;;;17.89;62.71
30708;BME280;17458;48.958;8.284;2023-04-29T07:30:09;100369.78;;;18.12;63.31
30708;BME280;17458;48.958;8.284;2023-04-29T07:32:54;100378.13;;;18.24;64.27
30708;BME280;17458;48.958;8.284;2023-04-29T07:35:37;100370.59;;;18.53;60.48
30708;BME280;17458;48.958;8.284;2023-04-29T07:38:24;100377.28;;;18.28;61.64
30708;BME280;17458;48.958;8.284;2023-04-29T07:41:09;100378.63;;;19.01;61.04
30708;BME280;17458;48.958;8.284;2023-04-29T07:43:53;100374.94;;;18.46;59.99
30708;BME280;17458;48.958;8.284;2023-04-29T07:46:36;100379.28;;;18.38;60.95
30708;BME280;17458;48.958;8.284;2023-04-29T07:49:20;100384.75;;;18.44;61.96
30708;BME280;17458;48.958;8.284;2023-04-29T07:52:05;100394.44;;;18.34;60.83
30708;BME280;17458;48.958;8.284;2023-04-29T07:54:50;100393.91;;;18.07;60.06
30708;BME280;17458;48.958;8.284;2023-04-29T07:57:34;100386.69;;;18.04;61.48
30708;BME280;17458;48.958;8.284;2023-04-29T08:00:19;100392.63;;;17.88;62.10
30708;BME280;17458;48.958;8.284;2023-04-29T08:03:04;100389.34;;;18.03;60.72
30708;BME280;17458;48.958;8.284;2023-04-29T08:05:48;100385.13;;;18.61;59.45
30708;BME280;17458;48.958;8.284;2023-04-29T08:08:36;100387.41;;;18.42;60.66
30708;BME280;17458;48.958;8.284;2023-04-29T08:11:20;100396.41;;;18.43;61.52
30708;BME280;17458;48.958;8.284;2023-04-29T08:14:07;100395.06;;;18.65;61.66
30708;BME280;17458;48.958;8.284;2023-04-29T08:16:51;100402.47;;;18.33;61.86
30708;BME280;17458;48.958;8.284;2023-04-29T08:19:36;100396.09;;;18.73;60.91
30708;BME280;17458;48.958;8.284;2023-04-29T08:22:20;100396.78;;;19.14;58.82
30708;BME280;17458;48.958;8.284;2023-04-29T08:25:04;100395.59;;;19.51;58.87
30708;BME280;17458;48.958;8.284;2023-04-29T08:27:48;100393.19;;;19.71;57.75
30708;BME280;17458;48.958;8.284;2023-04-29T08:30:32;100395.47;;;20.08;57.15
30708;BME280;17458;48.958;8.284;2023-04-29T08:33:20;100394.38;;;20.70;54.16
30708;BME280;17458;48.958;8.284;2023-04-29T08:36:04;100397.66;;;19.69;57.41
30708;BME280;17458;48.958;8.284;2023-04-29T08:38:48;100402.19;;;19.73;55.98
30708;BME280;17458;48.958;8.284;2023-04-29T08:41:35;100403.84;;;19.62;55.47
30708;BME280;17458;48.958;8.284;2023-04-29T08:44:19;100407.31;;;20.20;53.62
30708;BME280;17458;48.958;8.284;2023-04-29T08:47:04;100397.66;;;20.38;54.69
30708;BME280;17458;48.958;8.284;2023-04-29T08:49:48;100402.97;;;20.34;51.79
30708;BME280;17458;48.958;8.284;2023-04-29T08:52:32;100407.53;;;20.38;51.58
30708;BME280;17458;48.958;8.284;2023-04-29T08:55:16;100407.16;;;20.09;53.25
30708;BME280;17458;48.958;8.284;2023-04-29T08:58:01;100399.50;;;19.73;53.56
30708;BME280;17458;48.958;8.284;2023-04-29T09:00:45;100399.03;;;20.07;53.90
30708;BME280;17458;48.958;8.284;2023-04-29T09:03:39;100407.06;;;20.01;53.29
30708;BME280;17458;48.958;8.284;2023-04-29T09:06:25;100411.69;;;19.48;55.43
30708;BME280;17458;48.958;8.284;2023-04-29T09:09:10;100408.97;;;20.10;53.31
30708;BME280;17458;48.958;8.284;2023-04-29T09:11:54;100414.38;;;19.48;55.07
30708;BME280;17458;48.958;8.284;2023-04-29T09:14:38;100413.47;;;18.92;56.90
30708;BME280;17458;48.958;8.284;2023-04-29T09:17:42;100415.63;;;19.14;56.08
30708;BME280;17458;48.958;8.284;2023-04-29T09:20:27;100427.19;;;19.07;56.28
30708;BME280;17458;48.958;8.284;2023-04-29T09:23:12;100427.22;;;19.10;55.54
30708;BME280;17458;48.958;8.284;2023-04-29T09:25:56;100423.75;;;18.64;55.30
30708;BME280;17458;48.958;8.284;2023-04-29T09:28:40;100422.47;;;18.94;56.08
30708;BME280;17458;48.958;8.284;2023-04-29T09:31:26;100424.03;;;18.80;55.65
30708;BME280;17458;48.958;8.284;2023-04-29T09:34:11;100417.41;;;19.13;56.73
30708;BME280;17458;48.958;8.284;2023-04-29T09:36:55;100422.31;;;18.85;56.27
30708;BME280;17458;48.958;8.284;2023-04-29T09:39:42;100426.09;;;18.49;56.67
30708;BME280;17458;48.958;8.284;2023-04-29T09:42:26;100424.56;;;18.60;56.97
30708;BME280;17458;48.958;8.284;2023-04-29T09:45:09;100426.78;;;18.84;55.56
30708;BME280;17458;48.958;8.284;2023-04-29T09:48:00;100429.66;;;18.48;56.92
30708;BME280;17458;48.958;8.284;2023-04-29T09:50:58;100432.47;;;18.53;55.48
30708;BME280;17458;48.958;8.284;2023-04-29T09:53:44;100427.38;;;18.23;56.50
30708;BME280;17458;48.958;8.284;2023-04-29T09:56:47;100427.97;;;18.53;54.54
30708;BME280;17458;48.958;8.284;2023-04-29T09:59:33;100433.63;;;18.65;52.75
30708;BME280;17458;48.958;8.284;2023-04-29T10:02:21;100435.41;;;18.65;53.97
30708;BME280;17458;48.958;8.284;2023-04-29T10:05:08;100431.69;;;18.58;53.70
30708;BME280;17458;48.958;8.284;2023-04-29T10:07:54;100432.81;;;19.24;53.86
30708;BME280;17458;48.958;8.284;2023-04-29T10:10:39;100425.44;;;19.65;53.47
30708;BME280;17458;48.958;8.284;2023-04-29T10:13:24;100433.88;;;19.89;52.68
30708;BME280;17458;48.958;8.284;2023-04-29T10:16:22;100428.31;;;20.46;50.58
30708;BME280;17458;48.958;8.284;2023-04-29T10:19:11;100427.78;;;20.05;48.45
30708;BME280;17458;48.958;8.284;2023-04-29T10:21:59;100439.91;;;20.38;50.01
30708;BME280;17458;48.958;8.284;2023-04-29T10:24:52;100433.34;;;20.99;49.66
30708;BME280;17458;48.958;8.284;2023-04-29T10:27:41;100431.22;;;20.66;51.01
30708;BME280;17458;48.958;8.284;2023-04-29T10:30:26;100422.34;;;20.79;48.31
30708;BME280;17458;48.958;8.284;2023-04-29T10:33:11;100420.31;;;20.54;49.99
30708;BME280;17458;48.958;8.284;2023-04-29T10:35:55;100416.00;;;20.71;49.38
30708;BME280;17458;48.958;8.284;2023-04-29T10:38:42;100420.53;;;20.01;50.29
30708;BME280;17458;48.958;8.284;2023-04-29T10:41:42;100415.63;;;20.38;50.16
30708;BME280;17458;48.958;8.284;2023-04-29T10:44:29;100423.63;;;20.32;49.93
30708;BME280;17458;48.958;8.284;2023-04-29T10:47:19;100416.19;;;20.91;48.90
30708;BME280;17458;48.958;8.284;2023-04-29T10:50:04;100423.88;;;20.53;49.54
30708;BME280;17458;48.958;8.284;2023-04-29T10:52:51;100424.06;;;19.96;51.69
30708;BME280;17458;48.958;8.284;2023-04-29T10:55:36;100425.19;;;18.49;54.98
30708;BME280;17458;48.958;8.284;2023-04-29T10:58:40;100424.28;;;18.03;57.39
30708;BME280;17458;48.958;8.284;2023-04-29T11:01:48;100418.75;;;17.58;58.02
30708;BME280;17458;48.958;8.284;2023-04-29T11:04:33;100425.75;;;17.14;58.94
30708;BME280;17458;48.958;8.284;2023-04-29T11:07:26;100426.94;;;17.25;59.20
30708;BME280;17458;48.958;8.284;2023-04-29T11:10:12;100429.41;;;17.55;58.44
30708;BME280;17458;48.958;8.284;2023-04-29T11:16:07;100418.56;;;16.77;60.58
30708;BME280;17458;48.958;8.284;2023-04-29T11:19:08;100419.47;;;17.13;59.68
30708;BME280;17458;48.958;8.284;2023-04-29T11:22:12;100415.88;;;17.13;59.87
30708;BME280;17458;48.958;8.284;2023-04-29T11:25:05;100426.88;;;17.22;59.93
30708;BME280;17458;48.958;8.284;2023-04-29T11:27:50;100427.97;;;16.94;61.38
30708;BME280;17458;48.958;8.284;2023-04-29T11:30:34;100430.91;;;17.05;59.85
30708;BME280;17458;48.958;8.284;2023-04-29T11:33:19;100429.47;;;16.83;59.94
30708;BME280;17458;48.958;8.284;2023-04-29T11:36:03;100428.13;;;17.01;60.20
30708;BME280;17458;48.958;8.284;2023-04-29T11:38:47;100432.91;;;17.12;59.61
30708;BME280;17458;48.958;8.284;2023-04-29T11:41:31;100439.69;;;16.99;60.00
30708;BME280;17458;48.958;8.284;2023-04-29T11:44:20;100440.59;;;16.98;60.24
30708;BME280;17458;48.958;8.284;2023-04-29T11:47:06;100439.97;;;17.46;59.46
30708;BME280;17458;48.958;8.284;2023-04-29T11:49:50;100443.25;;;17.70;58.87
30708;BME280;17458;48.958;8.284;2023-04-29T11:52:35;100450.50;;;17.74;58.29
30708;BME280;17458;48.958;8.284;2023-04-29T11:55:20;100440.94;;;17.13;59.46
30708;BME280;17458;48.958;8.284;2023-04-29T11:58:04;100438.78;;;16.98;59.94
30708;BME280;17458;48.958;8.284;2023-04-29T12:00:48;100440.25;;;17.20;59.51
30708;BME280;17458;48.958;8.284;2023-04-29T12:03:32;100439.38;;;17.21;59.23
30708;BME280;17458;48.958;8.284;2023-04-29T12:06:16;100453.97;;;17.68;57.88
30708;BME280;17458;48.958;8.284;2023-04-29T12:09:00;100447.31;;;17.92;58.12
30708;BME280;17458;48.958;8.284;2023-04-29T12:11:47;100450.13;;;17.98;58.06
30708;BME280;17458;48.958;8.284;2023-04-29T12:14:33;100446.81;;;18.10;57.06
30708;BME280;17458;48.958;8.284;2023-04-29T12:17:17;100447.88;;;18.18;56.21
30708;BME280;17458;48.958;8.284;2023-04-29T12:20:02;100452.31;;;17.75;56.28
30708;BME280;17458;48.958;8.284;2023-04-29T12:22:46;100457.03;;;17.85;57.30
30708;BME280;17458;48.958;8.284;2023-04-29T12:25:31;100460.56;;;18.23;56.42
30708;BME280;17458;48.958;8.284;2023-04-29T12:28:15;100458.69;;;18.21;56.17
30708;BME280;17458;48.958;8.284;2023-04-29T12:30:59;100454.97;;;18.14;56.91
30708;BME280;17458;48.958;8.284;2023-04-29T12:33:44;100461.34;;;18.61;55.40
30708;BME280;17458;48.958;8.284;2023-04-29T12:36:28;100465.59;;;18.52;54.83
30708;BME280;17458;48.958;8.284;2023-04-29T12:39:13;100468.16;;;18.46;55.52
30708;BME280;17458;48.958;8.284;2023-04-29T12:41:57;100464.72;;;18.53;55.55
30708;BME280;17458;48.958;8.284;2023-04-29T12:44:45;100464.50;;;18.87;55.14
30708;BME280;17458;48.958;8.284;2023-04-29T12:47:31;100474.13;;;19.23;54.28
30708;BME280;17458;48.958;8.284;2023-04-29T12:50:19;100468.28;;;18.53;54.78
30708;BME280;17458;48.958;8.284;2023-04-29T12:53:05;100465.50;;;18.92;54.97
30708;BME280;17458;48.958;8.284;2023-04-29T12:55:50;100473.16;;;18.71;53.89
30708;BME280;17458;48.958;8.284;2023-04-29T12:58:37;100478.63;;;18.74;54.71
30708;BME280;17458;48.958;8.284;2023-04-29T13:01:21;100469.28;;;19.03;53.54
30708;BME280;17458;48.958;8.284;2023-04-29T13:04:05;100473.88;;;18.61;53.59
30708;BME280;17458;48.958;8.284;2023-04-29T13:06:52;100464.66;;;18.95;53.79
30708;BME280;17458;48.958;8.284;2023-04-29T13:09:42;100468.97;;;18.85;53.66
30708;BME280;17458;48.958;8.284;2023-04-29T13:12:26;100469.19;;;18.99;52.56
30708;BME280;17458;48.958;8.284;2023-04-29T13:15:10;100470.59;;;19.27;52.66
30708;BME280;17458;48.958;8.284;2023-04-29T13:17:55;100470.72;;;19.34;52.31
30708;BME280;17458;48.958;8.284;2023-04-29T13:20:41;100473.44;;;19.36;51.56
30708;BME280;17458;48.958;8.284;2023-04-29T13:23:25;100474.50;;;18.93;51.51
30708;BME280;17458;48.958;8.284;2023-04-29T13:26:09;100477.03;;;19.35;52.48
30708;BME280;17458;48.958;8.284;2023-04-29T13:28:53;100484.41;;;19.48;51.84
30708;BME280;17458;48.958;8.284;2023-04-29T13:31:37;100485.78;;;19.23;51.95
30708;BME280;17458;48.958;8.284;2023-04-29T13:34:21;100481.19;;;18.66;53.80
30708;BME280;17458;48.958;8.284;2023-04-29T13:37:05;100486.94;;;18.88;52.15
30708;BME280;17458;48.958;8.284;2023-04-29T13:39:49;100478.63;;;18.74;52.13
30708;BME280;17458;48.958;8.284;2023-04-29T13:42:33;100488.38;;;19.17;51.75
30708;BME280;17458;48.958;8.284;2023-04-29T13:45:17;100489.72;;;18.92;51.95
30708;BME280;17458;48.958;8.284;2023-04-29T13:48:01;100481.31;;;18.74;52.03
30708;BME280;17458;48.958;8.284;2023-04-29T13:50:45;100486.41;;;19.07;52.46
30708;BME280;17458;48.958;8.284;2023-04-29T13:53:29;100488.34;;;18.67;51.72
30708;BME280;17458;48.958;8.284;2023-04-29T13:56:13;100485.91;;;18.81;52.66
30708;BME280;17458;48.958;8.284;2023-04-29T13:58:57;100486.59;;;18.69;52.36
30708;BME280;17458;48.958;8.284;2023-04-29T14:01:41;100482.72;;;18.13;53.67
30708;BME280;17458;48.958;8.284;2023-04-29T14:04:26;100488.03;;;18.54;53.35
30708;BME280;17458;48.958;8.284;2023-04-29T14:07:10;100486.59;;;18.69;52.88
30708;BME280;17458;48.958;8.284;2023-04-29T14:09:54;100491.78;;;18.59;54.18
30708;BME280;17458;48.958;8.284;2023-04-29T14:12:38;100490.69;;;18.51;52.99
30708;BME280;17458;48.958;8.284;2023-04-29T14:15:22;100497.28;;;18.23;53.59
30708;BME280;17458;48.958;8.284;2023-04-29T14:18:06;100499.84;;;18.18;54.08
30708;BME280;17458;48.958;8.284;2023-04-29T14:20:52;100498.50;;;18.40;53.51
30708;BME280;17458;48.958;8.284;2023-04-29T14:23:37;100502.69;;;18.26;54.01
30708;BME280;17458;48.958;8.284;2023-04-29T14:26:21;100507.69;;;18.08;54.69
30708;BME280;17458;48.958;8.284;2023-04-29T14:29:05;100514.09;;;17.75;56.09
30708;BME280;17458;48.958;8.284;2023-04-29T14:31:49;100508.69;;;17.38;57.63
30708;BME280;17458;48.958;8.284;2023-04-29T14:34:32;100508.44;;;17.28;58.03
30708;BME280;17458;48.958;8.284;2023-04-29T14:37:16;100518.00;;;17.17;58.48
30708;BME280;17458;48.958;8.284;2023-04-29T14:40:00;100515.84;;;17.37;58.03
30708;BME280;17458;48.958;8.284;2023-04-29T14:42:44;100525.41;;;17.27;58.28
30708;BME280;17458;48.958;8.284;2023-04-29T14:45:28;100530.13;;;17.03;59.11